Minneapolis-St Paul International/Wold-Chamberlain Airport
KMSP : now visible

Airfield :











YOU CAN JOIN US ON...

 
LOGIN :

Register | Disclaimer

   EN    FR    IT 

 









Legend :    VFR   Marginal VFR   IFR   Intensive IFR   Very Intensive IFR
Visi :
Ceiling :
>= 8 km
>= 3000ft
5 to 8 km
1000 to 3000 ft
1500m to 5 km
500 to 1000 ft
800 to 1500m
200 to 500 ft
< 800m
< 200 ft
Symbols :   Thunderstorms  Fog  Heavy snow  Heavy precipitations  Wind > 20 kt






- Airport Elevation : 841 ft
- IATA code : MSP


KMSP - Minneapolis-St Paul International/Wold-Chamberlain

CURRENT METAR :
  • 280407Z 32009KT 10SM FEW023 BKN029 OVC055 14/13 A2992 RMK AO2 T01440128

EXPIRED METARs :
  • 280353Z 32006KT 10SM BKN030 OVC080 14/13 A2991 RMK AO2 SLP131 T01440133
  • 280253Z 32003KT 10SM BKN065 BKN100 14/13 A2990 RMK AO2 SLP125 T01390128 53023
  • 280153Z 29003KT 10SM SCT070 BKN090 BKN250 14/12 A2988 RMK AO2 SLP118 TCU DSNT NW-N T01440122
  • 280053Z 27005KT 10SM SCT060 BKN080 BKN250 15/12 A2986 RMK AO2 SLP110 CB DSNT SW MOV SE T01500122
  • 272353Z 24007KT 10SM FEW050 SCT120 BKN250 15/12 A2983 RMK AO2 RAE2255 SLP103 CB DSNT W MOV SE P0000 60044 T01500122 10194 20117 51006

TAF KMSP
Valid from the 28 at 04:00 until the 29 at 06:00 UTC


280331Z 2804/2906 33005KT P6SM SCT060
FM281200 32007KT P6SM BKN060
PROB30 2812/2817 -SHRA BKN030
FM281900 33012G20KT P6SM SCT050
FM290200 34007KT P6SM FEW090
KZMP FIR / North America



MET'MAP, your aeronautical weather chart ! - Copyright ORBIFLY December 2007 - Disclaimer

ORBIFLY MET'MAP TEAM :

Programming & Development : Alexandra Zaïnal
Original concept : Baudouin d'Aumeries
Technical & hardware support : Manuel Goepfert
Assistance : Marc-Olivier Méhu




SOURCES & CREDITS :

   NOAA       Earth
Advisory